TAF Text Data
IDs:
Format:
Raw Decoded Include METAR

Data at: 1249 UTC 23 Jun 2021

KBGR 231120Z 2312/2412 30005KT P6SM SCT040 BKN200
  FM231400 30008G15KT P6SM SCT045
  FM231800 29009G16KT P6SM SCT070
  FM232300 27005KT P6SM FEW150
  FM240200 VRB02KT P6SM SKC